sensor_id;sensor_type;location;lat;lon;timestamp;P1;durP1;ratioP1;P2;durP2;ratioP2
46334;SDS011;32051;48.882;9.210;2023-02-28T00:00:51;3.22;;;2.20;;
46334;SDS011;32051;48.882;9.210;2023-02-28T00:03:17;2.00;;;1.90;;
46334;SDS011;32051;48.882;9.210;2023-02-28T00:05:43;2.55;;;1.95;;
46334;SDS011;32051;48.882;9.210;2023-02-28T00:08:09;4.30;;;1.70;;
46334;SDS011;32051;48.882;9.210;2023-02-28T00:10:35;3.65;;;1.92;;
46334;SDS011;32051;48.882;9.210;2023-02-28T00:13:02;4.25;;;2.45;;
46334;SDS011;32051;48.882;9.210;2023-02-28T00:15:29;4.18;;;2.15;;
46334;SDS011;32051;48.882;9.210;2023-02-28T00:17:56;6.32;;;2.58;;
46334;SDS011;32051;48.882;9.210;2023-02-28T00:20:22;2.33;;;1.83;;
46334;SDS011;32051;48.882;9.210;2023-02-28T00:22:49;5.07;;;3.03;;
46334;SDS011;32051;48.882;9.210;2023-02-28T00:25:17;2.05;;;1.85;;
46334;SDS011;32051;48.882;9.210;2023-02-28T00:27:43;2.67;;;2.10;;
46334;SDS011;32051;48.882;9.210;2023-02-28T00:30:11;1.80;;;1.70;;
46334;SDS011;32051;48.882;9.210;2023-02-28T00:32:38;2.30;;;2.10;;
46334;SDS011;32051;48.882;9.210;2023-02-28T00:35:04;4.07;;;2.53;;
46334;SDS011;32051;48.882;9.210;2023-02-28T00:37:30;2.47;;;2.30;;
46334;SDS011;32051;48.882;9.210;2023-02-28T00:39:56;2.15;;;1.98;;
46334;SDS011;32051;48.882;9.210;2023-02-28T00:42:23;5.88;;;1.98;;
46334;SDS011;32051;48.882;9.210;2023-02-28T00:44:49;3.05;;;2.75;;
46334;SDS011;32051;48.882;9.210;2023-02-28T00:47:15;3.47;;;2.38;;
46334;SDS011;32051;48.882;9.210;2023-02-28T00:49:42;3.17;;;2.35;;
46334;SDS011;32051;48.882;9.210;2023-02-28T00:52:08;7.35;;;3.20;;
46334;SDS011;32051;48.882;9.210;2023-02-28T00:54:34;2.38;;;2.17;;
46334;SDS011;32051;48.882;9.210;2023-02-28T00:57:00;3.80;;;2.40;;
46334;SDS011;32051;48.882;9.210;2023-02-28T00:59:26;5.20;;;2.78;;
46334;SDS011;32051;48.882;9.210;2023-02-28T01:01:52;4.95;;;1.95;;
46334;SDS011;32051;48.882;9.210;2023-02-28T01:04:20;2.28;;;2.17;;
46334;SDS011;32051;48.882;9.210;2023-02-28T01:06:46;2.53;;;2.30;;
46334;SDS011;32051;48.882;9.210;2023-02-28T01:09:12;3.53;;;3.10;;
46334;SDS011;32051;48.882;9.210;2023-02-28T01:11:40;2.58;;;2.38;;
46334;SDS011;32051;48.882;9.210;2023-02-28T01:14:11;2.97;;;2.30;;
46334;SDS011;32051;48.882;9.210;2023-02-28T01:16:37;3.33;;;2.17;;
46334;SDS011;32051;48.882;9.210;2023-02-28T01:19:03;2.33;;;2.15;;
46334;SDS011;32051;48.882;9.210;2023-02-28T01:21:30;2.78;;;2.58;;
46334;SDS011;32051;48.882;9.210;2023-02-28T01:23:56;2.35;;;2.15;;
46334;SDS011;32051;48.882;9.210;2023-02-28T01:26:23;2.88;;;2.40;;
46334;SDS011;32051;48.882;9.210;2023-02-28T01:28:49;2.53;;;2.33;;
46334;SDS011;32051;48.882;9.210;2023-02-28T01:31:16;5.43;;;2.25;;
46334;SDS011;32051;48.882;9.210;2023-02-28T01:33:43;2.83;;;2.38;;
46334;SDS011;32051;48.882;9.210;2023-02-28T01:36:10;3.20;;;2.47;;
46334;SDS011;32051;48.882;9.210;2023-02-28T01:38:37;2.28;;;2.17;;
46334;SDS011;32051;48.882;9.210;2023-02-28T01:41:03;4.90;;;2.17;;
46334;SDS011;32051;48.882;9.210;2023-02-28T01:43:30;10.25;;;2.78;;
46334;SDS011;32051;48.882;9.210;2023-02-28T01:45:57;2.85;;;2.63;;
46334;SDS011;32051;48.882;9.210;2023-02-28T01:48:34;2.85;;;2.47;;
46334;SDS011;32051;48.882;9.210;2023-02-28T01:51:02;6.65;;;2.95;;
46334;SDS011;32051;48.882;9.210;2023-02-28T01:53:32;4.10;;;2.50;;
46334;SDS011;32051;48.882;9.210;2023-02-28T01:55:59;3.83;;;2.85;;
46334;SDS011;32051;48.882;9.210;2023-02-28T01:58:25;6.10;;;2.85;;
46334;SDS011;32051;48.882;9.210;2023-02-28T02:00:51;3.47;;;2.08;;
46334;SDS011;32051;48.882;9.210;2023-02-28T02:03:18;3.47;;;2.60;;
46334;SDS011;32051;48.882;9.210;2023-02-28T02:05:45;3.15;;;2.88;;
46334;SDS011;32051;48.882;9.210;2023-02-28T02:08:15;2.72;;;2.53;;
46334;SDS011;32051;48.882;9.210;2023-02-28T02:21:39;2.67;;;2.47;;
46334;SDS011;32051;48.882;9.210;2023-02-28T02:31:50;3.00;;;2.50;;
46334;SDS011;32051;48.882;9.210;2023-02-28T02:37:14;2.60;;;2.40;;
46334;SDS011;32051;48.882;9.210;2023-02-28T02:42:21;2.75;;;2.55;;
46334;SDS011;32051;48.882;9.210;2023-02-28T02:44:50;4.03;;;2.28;;
46334;SDS011;32051;48.882;9.210;2023-02-28T02:47:19;11.07;;;3.05;;
46334;SDS011;32051;48.882;9.210;2023-02-28T02:49:50;3.13;;;2.50;;
46334;SDS011;32051;48.882;9.210;2023-02-28T02:52:18;2.53;;;2.33;;
46334;SDS011;32051;48.882;9.210;2023-02-28T02:54:46;3.20;;;3.00;;
46334;SDS011;32051;48.882;9.210;2023-02-28T02:57:17;5.85;;;3.08;;
46334;SDS011;32051;48.882;9.210;2023-02-28T02:59:44;5.75;;;2.63;;
46334;SDS011;32051;48.882;9.210;2023-02-28T03:02:11;3.25;;;2.95;;
46334;SDS011;32051;48.882;9.210;2023-02-28T03:04:40;3.15;;;2.85;;
46334;SDS011;32051;48.882;9.210;2023-02-28T03:07:07;4.53;;;2.63;;
46334;SDS011;32051;48.882;9.210;2023-02-28T03:09:33;4.18;;;3.20;;
46334;SDS011;32051;48.882;9.210;2023-02-28T03:12:00;2.97;;;2.58;;
46334;SDS011;32051;48.882;9.210;2023-02-28T03:16:59;4.93;;;3.75;;
46334;SDS011;32051;48.882;9.210;2023-02-28T03:19:45;3.53;;;3.33;;
46334;SDS011;32051;48.882;9.210;2023-02-28T03:27:31;3.63;;;3.33;;
46334;SDS011;32051;48.882;9.210;2023-02-28T03:30:00;3.28;;;3.03;;
46334;SDS011;32051;48.882;9.210;2023-02-28T03:32:36;4.07;;;2.88;;
46334;SDS011;32051;48.882;9.210;2023-02-28T03:35:14;4.63;;;3.28;;
46334;SDS011;32051;48.882;9.210;2023-02-28T03:37:47;8.40;;;2.92;;
46334;SDS011;32051;48.882;9.210;2023-02-28T03:40:15;3.30;;;3.00;;
46334;SDS011;32051;48.882;9.210;2023-02-28T03:42:43;3.53;;;2.92;;
46334;SDS011;32051;48.882;9.210;2023-02-28T03:45:17;3.30;;;3.00;;
46334;SDS011;32051;48.882;9.210;2023-02-28T03:47:55;5.05;;;2.97;;
46334;SDS011;32051;48.882;9.210;2023-02-28T03:50:35;5.85;;;2.80;;
46334;SDS011;32051;48.882;9.210;2023-02-28T03:53:07;4.13;;;3.70;;
46334;SDS011;32051;48.882;9.210;2023-02-28T03:55:35;4.82;;;2.85;;
46334;SDS011;32051;48.882;9.210;2023-02-28T04:00:51;3.45;;;3.05;;
46334;SDS011;32051;48.882;9.210;2023-02-28T04:03:18;6.18;;;3.72;;
46334;SDS011;32051;48.882;9.210;2023-02-28T04:05:51;3.45;;;3.15;;
46334;SDS011;32051;48.882;9.210;2023-02-28T04:08:18;3.03;;;2.80;;
46334;SDS011;32051;48.882;9.210;2023-02-28T04:10:45;5.13;;;3.50;;
46334;SDS011;32051;48.882;9.210;2023-02-28T04:13:14;6.35;;;3.35;;
46334;SDS011;32051;48.882;9.210;2023-02-28T04:15:40;3.33;;;2.90;;
46334;SDS011;32051;48.882;9.210;2023-02-28T04:18:06;3.47;;;3.17;;
46334;SDS011;32051;48.882;9.210;2023-02-28T04:20:32;6.30;;;3.58;;
46334;SDS011;32051;48.882;9.210;2023-02-28T04:22:58;2.78;;;2.58;;
46334;SDS011;32051;48.882;9.210;2023-02-28T04:25:24;5.95;;;3.35;;
46334;SDS011;32051;48.882;9.210;2023-02-28T04:27:50;3.78;;;3.45;;
46334;SDS011;32051;48.882;9.210;2023-02-28T04:30:16;3.20;;;2.90;;
46334;SDS011;32051;48.882;9.210;2023-02-28T04:32:42;5.93;;;2.58;;
46334;SDS011;32051;48.882;9.210;2023-02-28T04:35:08;3.55;;;3.10;;
46334;SDS011;32051;48.882;9.210;2023-02-28T04:37:34;3.63;;;3.33;;
46334;SDS011;32051;48.882;9.210;2023-02-28T04:40:02;3.65;;;3.17;;
46334;SDS011;32051;48.882;9.210;2023-02-28T04:42:28;4.28;;;3.58;;
46334;SDS011;32051;48.882;9.210;2023-02-28T04:45:00;8.68;;;3.17;;
46334;SDS011;32051;48.882;9.210;2023-02-28T04:47:26;4.13;;;3.58;;
46334;SDS011;32051;48.882;9.210;2023-02-28T04:49:53;3.97;;;3.67;;
46334;SDS011;32051;48.882;9.210;2023-02-28T04:52:19;9.00;;;3.88;;
46334;SDS011;32051;48.882;9.210;2023-02-28T04:54:45;4.57;;;3.90;;
46334;SDS011;32051;48.882;9.210;2023-02-28T04:57:11;3.90;;;3.08;;
46334;SDS011;32051;48.882;9.210;2023-02-28T04:59:37;3.70;;;3.38;;
46334;SDS011;32051;48.882;9.210;2023-02-28T05:02:03;4.47;;;3.75;;
46334;SDS011;32051;48.882;9.210;2023-02-28T05:04:34;3.70;;;3.40;;
46334;SDS011;32051;48.882;9.210;2023-02-28T05:07:01;5.43;;;4.57;;
46334;SDS011;32051;48.882;9.210;2023-02-28T05:09:28;3.67;;;3.22;;
46334;SDS011;32051;48.882;9.210;2023-02-28T05:11:54;2.67;;;2.47;;
46334;SDS011;32051;48.882;9.210;2023-02-28T05:14:21;3.60;;;3.30;;
46334;SDS011;32051;48.882;9.210;2023-02-28T05:16:47;4.40;;;3.25;;
46334;SDS011;32051;48.882;9.210;2023-02-28T05:19:13;3.70;;;3.40;;
46334;SDS011;32051;48.882;9.210;2023-02-28T05:21:40;5.90;;;4.28;;
46334;SDS011;32051;48.882;9.210;2023-02-28T05:24:11;6.57;;;4.20;;
46334;SDS011;32051;48.882;9.210;2023-02-28T05:26:38;4.20;;;3.60;;
46334;SDS011;32051;48.882;9.210;2023-02-28T05:29:04;3.53;;;3.33;;
46334;SDS011;32051;48.882;9.210;2023-02-28T05:31:30;4.43;;;4.05;;
46334;SDS011;32051;48.882;9.210;2023-02-28T05:33:57;4.30;;;3.90;;
46334;SDS011;32051;48.882;9.210;2023-02-28T05:36:23;4.60;;;4.25;;
46334;SDS011;32051;48.882;9.210;2023-02-28T05:38:49;7.25;;;3.80;;
46334;SDS011;32051;48.882;9.210;2023-02-28T05:41:16;7.00;;;3.90;;
46334;SDS011;32051;48.882;9.210;2023-02-28T05:43:42;5.03;;;4.55;;
46334;SDS011;32051;48.882;9.210;2023-02-28T05:46:09;4.72;;;4.10;;
46334;SDS011;32051;48.882;9.210;2023-02-28T05:48:36;3.33;;;3.05;;
46334;SDS011;32051;48.882;9.210;2023-02-28T05:51:02;6.18;;;3.97;;
46334;SDS011;32051;48.882;9.210;2023-02-28T05:53:29;4.32;;;3.50;;
46334;SDS011;32051;48.882;9.210;2023-02-28T05:55:55;4.20;;;3.90;;
46334;SDS011;32051;48.882;9.210;2023-02-28T05:58:21;4.25;;;3.60;;
46334;SDS011;32051;48.882;9.210;2023-02-28T06:00:48;4.70;;;4.30;;
46334;SDS011;32051;48.882;9.210;2023-02-28T06:03:14;4.95;;;4.20;;
46334;SDS011;32051;48.882;9.210;2023-02-28T06:05:41;4.82;;;3.53;;
46334;SDS011;32051;48.882;9.210;2023-02-28T06:08:07;4.35;;;3.95;;
46334;SDS011;32051;48.882;9.210;2023-02-28T06:10:36;5.65;;;3.53;;
46334;SDS011;32051;48.882;9.210;2023-02-28T06:13:02;9.10;;;4.75;;
46334;SDS011;32051;48.882;9.210;2023-02-28T06:15:28;8.23;;;4.32;;
46334;SDS011;32051;48.882;9.210;2023-02-28T06:17:55;4.15;;;3.80;;
46334;SDS011;32051;48.882;9.210;2023-02-28T06:20:22;6.28;;;4.32;;
46334;SDS011;32051;48.882;9.210;2023-02-28T06:22:48;5.00;;;4.60;;
46334;SDS011;32051;48.882;9.210;2023-02-28T06:25:15;5.22;;;4.07;;
46334;SDS011;32051;48.882;9.210;2023-02-28T06:27:42;6.85;;;3.88;;
46334;SDS011;32051;48.882;9.210;2023-02-28T06:30:08;4.93;;;4.53;;
46334;SDS011;32051;48.882;9.210;2023-02-28T06:32:35;6.82;;;4.22;;
46334;SDS011;32051;48.882;9.210;2023-02-28T06:35:01;5.78;;;3.78;;
46334;SDS011;32051;48.882;9.210;2023-02-28T06:37:27;5.05;;;3.67;;
46334;SDS011;32051;48.882;9.210;2023-02-28T06:39:54;10.10;;;4.45;;
46334;SDS011;32051;48.882;9.210;2023-02-28T06:42:23;4.38;;;4.00;;
46334;SDS011;32051;48.882;9.210;2023-02-28T06:44:56;8.60;;;3.95;;
46334;SDS011;32051;48.882;9.210;2023-02-28T06:47:22;4.97;;;4.47;;
46334;SDS011;32051;48.882;9.210;2023-02-28T06:49:48;5.68;;;4.32;;
46334;SDS011;32051;48.882;9.210;2023-02-28T06:52:14;6.10;;;4.22;;
46334;SDS011;32051;48.882;9.210;2023-02-28T06:54:40;5.85;;;5.25;;
46334;SDS011;32051;48.882;9.210;2023-02-28T06:57:07;6.97;;;4.90;;
46334;SDS011;32051;48.882;9.210;2023-02-28T06:59:33;7.18;;;4.63;;
46334;SDS011;32051;48.882;9.210;2023-02-28T07:02:00;5.72;;;3.97;;
46334;SDS011;32051;48.882;9.210;2023-02-28T07:04:27;5.85;;;4.20;;
46334;SDS011;32051;48.882;9.210;2023-02-28T07:06:54;7.68;;;4.30;;
46334;SDS011;32051;48.882;9.210;2023-02-28T07:09:21;8.18;;;4.53;;
46334;SDS011;32051;48.882;9.210;2023-02-28T07:11:49;9.98;;;5.20;;
46334;SDS011;32051;48.882;9.210;2023-02-28T07:14:15;5.22;;;4.38;;
46334;SDS011;32051;48.882;9.210;2023-02-28T07:16:41;10.35;;;4.32;;
46334;SDS011;32051;48.882;9.210;2023-02-28T07:19:08;8.27;;;5.00;;
46334;SDS011;32051;48.882;9.210;2023-02-28T07:21:34;6.05;;;4.43;;
46334;SDS011;32051;48.882;9.210;2023-02-28T07:24:00;5.88;;;4.68;;
46334;SDS011;32051;48.882;9.210;2023-02-28T07:26:26;5.13;;;4.47;;
46334;SDS011;32051;48.882;9.210;2023-02-28T07:28:52;6.82;;;4.22;;
46334;SDS011;32051;48.882;9.210;2023-02-28T07:31:19;5.35;;;4.90;;
46334;SDS011;32051;48.882;9.210;2023-02-28T07:33:45;6.82;;;5.18;;
46334;SDS011;32051;48.882;9.210;2023-02-28T07:36:13;5.50;;;4.90;;
46334;SDS011;32051;48.882;9.210;2023-02-28T07:38:40;6.15;;;4.70;;
46334;SDS011;32051;48.882;9.210;2023-02-28T07:41:07;5.25;;;4.75;;
46334;SDS011;32051;48.882;9.210;2023-02-28T07:43:33;6.05;;;5.40;;
46334;SDS011;32051;48.882;9.210;2023-02-28T07:46:06;5.43;;;4.82;;
46334;SDS011;32051;48.882;9.210;2023-02-28T07:48:33;7.35;;;5.13;;
46334;SDS011;32051;48.882;9.210;2023-02-28T07:50:59;5.75;;;4.85;;
46334;SDS011;32051;48.882;9.210;2023-02-28T07:53:26;7.93;;;5.18;;
46334;SDS011;32051;48.882;9.210;2023-02-28T07:55:58;5.00;;;4.50;;
46334;SDS011;32051;48.882;9.210;2023-02-28T07:58:25;9.10;;;5.53;;
46334;SDS011;32051;48.882;9.210;2023-02-28T08:00:51;6.18;;;5.57;;
46334;SDS011;32051;48.882;9.210;2023-02-28T08:03:18;6.72;;;6.03;;
46334;SDS011;32051;48.882;9.210;2023-02-28T08:05:45;8.43;;;4.63;;
46334;SDS011;32051;48.882;9.210;2023-02-28T08:08:11;7.35;;;5.80;;
46334;SDS011;32051;48.882;9.210;2023-02-28T08:10:37;5.45;;;5.05;;
46334;SDS011;32051;48.882;9.210;2023-02-28T08:13:03;5.00;;;4.55;;
46334;SDS011;32051;48.882;9.210;2023-02-28T08:15:29;6.38;;;5.30;;
46334;SDS011;32051;48.882;9.210;2023-02-28T08:17:55;5.97;;;5.30;;
46334;SDS011;32051;48.882;9.210;2023-02-28T08:20:22;8.50;;;5.18;;
46334;SDS011;32051;48.882;9.210;2023-02-28T08:22:49;7.65;;;5.60;;
46334;SDS011;32051;48.882;9.210;2023-02-28T08:25:15;6.95;;;5.55;;
46334;SDS011;32051;48.882;9.210;2023-02-28T08:27:41;7.07;;;5.80;;
46334;SDS011;32051;48.882;9.210;2023-02-28T08:30:07;5.55;;;4.90;;
46334;SDS011;32051;48.882;9.210;2023-02-28T08:32:35;5.72;;;5.28;;
46334;SDS011;32051;48.882;9.210;2023-02-28T08:35:01;5.75;;;4.82;;
46334;SDS011;32051;48.882;9.210;2023-02-28T08:37:28;6.28;;;5.68;;
46334;SDS011;32051;48.882;9.210;2023-02-28T08:39:54;11.15;;;5.22;;
46334;SDS011;32051;48.882;9.210;2023-02-28T08:42:20;7.82;;;5.72;;
46334;SDS011;32051;48.882;9.210;2023-02-28T08:44:46;9.60;;;4.90;;
46334;SDS011;32051;48.882;9.210;2023-02-28T08:47:12;6.82;;;6.25;;
46334;SDS011;32051;48.882;9.210;2023-02-28T08:49:38;5.82;;;5.25;;
46334;SDS011;32051;48.882;9.210;2023-02-28T08:52:04;6.78;;;5.65;;
46334;SDS011;32051;48.882;9.210;2023-02-28T08:54:31;6.80;;;6.15;;
46334;SDS011;32051;48.882;9.210;2023-02-28T08:56:58;10.48;;;7.35;;
46334;SDS011;32051;48.882;9.210;2023-02-28T08:59:24;8.77;;;6.13;;
46334;SDS011;32051;48.882;9.210;2023-02-28T09:01:50;7.68;;;5.00;;
46334;SDS011;32051;48.882;9.210;2023-02-28T09:04:16;6.30;;;5.70;;
46334;SDS011;32051;48.882;9.210;2023-02-28T09:06:42;8.93;;;5.20;;
46334;SDS011;32051;48.882;9.210;2023-02-28T09:09:09;8.70;;;5.70;;
46334;SDS011;32051;48.882;9.210;2023-02-28T09:11:36;6.80;;;6.15;;
46334;SDS011;32051;48.882;9.210;2023-02-28T09:14:02;9.63;;;6.25;;
46334;SDS011;32051;48.882;9.210;2023-02-28T09:16:29;5.63;;;4.95;;
46334;SDS011;32051;48.882;9.210;2023-02-28T09:18:55;6.22;;;5.65;;
46334;SDS011;32051;48.882;9.210;2023-02-28T09:21:22;7.63;;;6.65;;
46334;SDS011;32051;48.882;9.210;2023-02-28T09:23:48;8.13;;;6.35;;
46334;SDS011;32051;48.882;9.210;2023-02-28T09:26:25;7.00;;;5.70;;
46334;SDS011;32051;48.882;9.210;2023-02-28T09:28:52;5.35;;;4.85;;
46334;SDS011;32051;48.882;9.210;2023-02-28T09:31:20;7.63;;;6.45;;
46334;SDS011;32051;48.882;9.210;2023-02-28T09:33:47;7.22;;;6.28;;
46334;SDS011;32051;48.882;9.210;2023-02-28T09:36:13;6.43;;;5.22;;
46334;SDS011;32051;48.882;9.210;2023-02-28T09:38:39;7.80;;;5.43;;
46334;SDS011;32051;48.882;9.210;2023-02-28T09:41:11;5.68;;;5.18;;
46334;SDS011;32051;48.882;9.210;2023-02-28T09:43:38;12.88;;;6.85;;
46334;SDS011;32051;48.882;9.210;2023-02-28T09:48:33;6.30;;;5.25;;
46334;SDS011;32051;48.882;9.210;2023-02-28T09:53:32;7.60;;;6.88;;
46334;SDS011;32051;48.882;9.210;2023-02-28T09:58:44;9.40;;;6.45;;
46334;SDS011;32051;48.882;9.210;2023-02-28T10:03:55;6.47;;;5.85;;
46334;SDS011;32051;48.882;9.210;2023-02-28T10:06:22;7.35;;;5.72;;
46334;SDS011;32051;48.882;9.210;2023-02-28T10:11:20;7.93;;;6.55;;
46334;SDS011;32051;48.882;9.210;2023-02-28T10:16:38;6.75;;;6.10;;
46334;SDS011;32051;48.882;9.210;2023-02-28T10:19:11;9.98;;;5.75;;
46334;SDS011;32051;48.882;9.210;2023-02-28T10:21:59;6.25;;;5.63;;
46334;SDS011;32051;48.882;9.210;2023-02-28T10:24:32;8.00;;;5.40;;
46334;SDS011;32051;48.882;9.210;2023-02-28T10:26:59;6.93;;;6.07;;
46334;SDS011;32051;48.882;9.210;2023-02-28T10:29:27;7.00;;;5.25;;
46334;SDS011;32051;48.882;9.210;2023-02-28T10:31:55;12.23;;;6.13;;
46334;SDS011;32051;48.882;9.210;2023-02-28T10:34:21;7.13;;;5.97;;
46334;SDS011;32051;48.882;9.210;2023-02-28T10:36:47;7.90;;;5.78;;
46334;SDS011;32051;48.882;9.210;2023-02-28T10:41:59;9.18;;;5.95;;
46334;SDS011;32051;48.882;9.210;2023-02-28T10:44:25;7.30;;;6.13;;
46334;SDS011;32051;48.882;9.210;2023-02-28T10:46:51;9.00;;;6.82;;
46334;SDS011;32051;48.882;9.210;2023-02-28T10:49:27;8.10;;;6.60;;
46334;SDS011;32051;48.882;9.210;2023-02-28T10:51:57;6.45;;;5.85;;
46334;SDS011;32051;48.882;9.210;2023-02-28T10:54:31;8.07;;;5.90;;
46334;SDS011;32051;48.882;9.210;2023-02-28T10:57:07;8.13;;;6.80;;
46334;SDS011;32051;48.882;9.210;2023-02-28T10:59:34;6.95;;;6.28;;
46334;SDS011;32051;48.882;9.210;2023-02-28T11:02:00;7.55;;;6.75;;
46334;SDS011;32051;48.882;9.210;2023-02-28T11:07:00;7.28;;;5.93;;
46334;SDS011;32051;48.882;9.210;2023-02-28T11:09:33;6.55;;;5.70;;
46334;SDS011;32051;48.882;9.210;2023-02-28T11:12:00;6.07;;;5.50;;
46334;SDS011;32051;48.882;9.210;2023-02-28T11:14:30;6.13;;;5.53;;
46334;SDS011;32051;48.882;9.210;2023-02-28T11:16:59;10.13;;;6.28;;
46334;SDS011;32051;48.882;9.210;2023-02-28T11:19:29;7.35;;;6.28;;
46334;SDS011;32051;48.882;9.210;2023-02-28T11:21:59;6.78;;;6.00;;
46334;SDS011;32051;48.882;9.210;2023-02-28T11:24:27;6.90;;;6.13;;
46334;SDS011;32051;48.882;9.210;2023-02-28T11:26:53;8.43;;;5.80;;
46334;SDS011;32051;48.882;9.210;2023-02-28T11:29:21;6.22;;;5.63;;
46334;SDS011;32051;48.882;9.210;2023-02-28T11:32:04;5.88;;;5.30;;
46334;SDS011;32051;48.882;9.210;2023-02-28T11:34:30;6.22;;;5.63;;
46334;SDS011;32051;48.882;9.210;2023-02-28T11:36:58;5.90;;;5.38;;
46334;SDS011;32051;48.882;9.210;2023-02-28T11:39:25;5.68;;;5.20;;
46334;SDS011;32051;48.882;9.210;2023-02-28T11:46:51;5.50;;;5.00;;
46334;SDS011;32051;48.882;9.210;2023-02-28T11:51:48;6.43;;;5.53;;
46334;SDS011;32051;48.882;9.210;2023-02-28T11:57:13;5.05;;;4.65;;
46334;SDS011;32051;48.882;9.210;2023-02-28T12:02:41;15.82;;;6.00;;
46334;SDS011;32051;48.882;9.210;2023-02-28T12:05:37;5.95;;;5.40;;
46334;SDS011;32051;48.882;9.210;2023-02-28T12:10:53;5.63;;;5.07;;
46334;SDS011;32051;48.882;9.210;2023-02-28T12:13:31;5.13;;;4.72;;
46334;SDS011;32051;48.882;9.210;2023-02-28T12:28:36;9.52;;;4.78;;
46334;SDS011;32051;48.882;9.210;2023-02-28T12:31:06;7.00;;;5.28;;
46334;SDS011;32051;48.882;9.210;2023-02-28T12:33:36;14.07;;;6.18;;
46334;SDS011;32051;48.882;9.210;2023-02-28T12:36:05;8.95;;;5.53;;
46334;SDS011;32051;48.882;9.210;2023-02-28T12:38:43;7.40;;;3.85;;
46334;SDS011;32051;48.882;9.210;2023-02-28T12:41:14;5.40;;;5.00;;
46334;SDS011;32051;48.882;9.210;2023-02-28T12:43:46;5.10;;;4.60;;
46334;SDS011;32051;48.882;9.210;2023-02-28T12:48:44;5.18;;;4.78;;
46334;SDS011;32051;48.882;9.210;2023-02-28T12:51:11;5.00;;;4.55;;
46334;SDS011;32051;48.882;9.210;2023-02-28T12:53:45;5.00;;;4.50;;
46334;SDS011;32051;48.882;9.210;2023-02-28T13:01:24;5.43;;;4.65;;
46334;SDS011;32051;48.882;9.210;2023-02-28T13:06:34;8.45;;;5.97;;
46334;SDS011;32051;48.882;9.210;2023-02-28T13:09:10;5.82;;;5.03;;
46334;SDS011;32051;48.882;9.210;2023-02-28T13:11:46;6.15;;;5.55;;
46334;SDS011;32051;48.882;9.210;2023-02-28T13:16:57;6.57;;;4.22;;
46334;SDS011;32051;48.882;9.210;2023-02-28T13:19:33;5.30;;;4.80;;
46334;SDS011;32051;48.882;9.210;2023-02-28T13:22:02;7.35;;;4.88;;
46334;SDS011;32051;48.882;9.210;2023-02-28T13:24:37;5.75;;;5.25;;
46334;SDS011;32051;48.882;9.210;2023-02-28T13:29:37;7.25;;;4.70;;
46334;SDS011;32051;48.882;9.210;2023-02-28T13:34:49;5.38;;;4.88;;
46334;SDS011;32051;48.882;9.210;2023-02-28T13:37:33;4.15;;;3.85;;
46334;SDS011;32051;48.882;9.210;2023-02-28T13:50:19;5.70;;;4.90;;
46334;SDS011;32051;48.882;9.210;2023-02-28T13:58:36;9.20;;;5.38;;
46334;SDS011;32051;48.882;9.210;2023-02-28T14:03:58;6.85;;;6.25;;
46334;SDS011;32051;48.882;9.210;2023-02-28T14:06:31;5.93;;;4.78;;
46334;SDS011;32051;48.882;9.210;2023-02-28T14:08:59;8.40;;;5.57;;
46334;SDS011;32051;48.882;9.210;2023-02-28T14:11:36;9.98;;;5.68;;
46334;SDS011;32051;48.882;9.210;2023-02-28T14:14:04;6.35;;;5.85;;
46334;SDS011;32051;48.882;9.210;2023-02-28T14:16:40;6.82;;;5.70;;
46334;SDS011;32051;48.882;9.210;2023-02-28T14:19:14;5.55;;;4.65;;
46334;SDS011;32051;48.882;9.210;2023-02-28T14:37:44;6.57;;;6.07;;
46334;SDS011;32051;48.882;9.210;2023-02-28T14:40:21;7.55;;;6.10;;
46334;SDS011;32051;48.882;9.210;2023-02-28T14:42:54;9.43;;;6.05;;
46334;SDS011;32051;48.882;9.210;2023-02-28T14:45:21;6.85;;;5.45;;
46334;SDS011;32051;48.882;9.210;2023-02-28T14:47:48;5.53;;;5.13;;
46334;SDS011;32051;48.882;9.210;2023-02-28T14:50:18;7.53;;;5.78;;
46334;SDS011;32051;48.882;9.210;2023-02-28T14:52:44;7.00;;;6.50;;
46334;SDS011;32051;48.882;9.210;2023-02-28T14:55:14;6.13;;;5.53;;
46334;SDS011;32051;48.882;9.210;2023-02-28T14:57:41;6.20;;;5.60;;
46334;SDS011;32051;48.882;9.210;2023-02-28T15:02:35;7.18;;;6.50;;
46334;SDS011;32051;48.882;9.210;2023-02-28T15:05:10;6.88;;;6.15;;
46334;SDS011;32051;48.882;9.210;2023-02-28T15:07:42;6.47;;;5.90;;
46334;SDS011;32051;48.882;9.210;2023-02-28T15:12:35;7.63;;;5.55;;
46334;SDS011;32051;48.882;9.210;2023-02-28T15:15:02;6.47;;;5.88;;
46334;SDS011;32051;48.882;9.210;2023-02-28T15:17:28;5.97;;;5.40;;
46334;SDS011;32051;48.882;9.210;2023-02-28T15:19:54;7.07;;;6.38;;
46334;SDS011;32051;48.882;9.210;2023-02-28T15:22:23;6.50;;;6.00;;
46334;SDS011;32051;48.882;9.210;2023-02-28T15:24:54;11.05;;;6.25;;
46334;SDS011;32051;48.882;9.210;2023-02-28T15:27:22;7.32;;;6.32;;
46334;SDS011;32051;48.882;9.210;2023-02-28T15:29:58;5.93;;;5.32;;
46334;SDS011;32051;48.882;9.210;2023-02-28T15:32:34;8.55;;;5.35;;
46334;SDS011;32051;48.882;9.210;2023-02-28T15:38:25;10.65;;;5.95;;
46334;SDS011;32051;48.882;9.210;2023-02-28T15:40:51;7.95;;;6.30;;
46334;SDS011;32051;48.882;9.210;2023-02-28T15:46:01;7.97;;;6.53;;
46334;SDS011;32051;48.882;9.210;2023-02-28T15:48:29;7.40;;;6.10;;
46334;SDS011;32051;48.882;9.210;2023-02-28T15:53:25;7.53;;;6.68;;
46334;SDS011;32051;48.882;9.210;2023-02-28T15:55:56;9.88;;;6.40;;
46334;SDS011;32051;48.882;9.210;2023-02-28T15:58:29;10.70;;;7.85;;
46334;SDS011;32051;48.882;9.210;2023-02-28T16:01:00;10.77;;;6.82;;
46334;SDS011;32051;48.882;9.210;2023-02-28T16:03:43;11.15;;;7.70;;
46334;SDS011;32051;48.882;9.210;2023-02-28T16:09:03;9.38;;;8.02;;
46334;SDS011;32051;48.882;9.210;2023-02-28T16:11:33;12.88;;;8.80;;
46334;SDS011;32051;48.882;9.210;2023-02-28T16:14:00;11.13;;;7.90;;
46334;SDS011;32051;48.882;9.210;2023-02-28T16:16:26;8.43;;;7.07;;
46334;SDS011;32051;48.882;9.210;2023-02-28T16:18:51;17.15;;;7.97;;
46334;SDS011;32051;48.882;9.210;2023-02-28T16:21:17;8.73;;;7.75;;
46334;SDS011;32051;48.882;9.210;2023-02-28T16:23:43;7.50;;;6.88;;
46334;SDS011;32051;48.882;9.210;2023-02-28T16:26:12;6.78;;;6.15;;
46334;SDS011;32051;48.882;9.210;2023-02-28T16:28:41;9.55;;;6.45;;
46334;SDS011;32051;48.882;9.210;2023-02-28T16:31:09;8.65;;;7.20;;
46334;SDS011;32051;48.882;9.210;2023-02-28T16:33:41;14.25;;;6.97;;
46334;SDS011;32051;48.882;9.210;2023-02-28T16:36:09;7.90;;;6.60;;
46334;SDS011;32051;48.882;9.210;2023-02-28T16:38:36;10.35;;;7.22;;
46334;SDS011;32051;48.882;9.210;2023-02-28T16:41:02;8.65;;;7.75;;
46334;SDS011;32051;48.882;9.210;2023-02-28T16:43:28;13.75;;;7.97;;
46334;SDS011;32051;48.882;9.210;2023-02-28T16:45:55;12.32;;;6.95;;
46334;SDS011;32051;48.882;9.210;2023-02-28T16:48:25;10.32;;;7.40;;
46334;SDS011;32051;48.882;9.210;2023-02-28T16:50:51;12.85;;;7.50;;
46334;SDS011;32051;48.882;9.210;2023-02-28T16:53:17;15.73;;;9.10;;
46334;SDS011;32051;48.882;9.210;2023-02-28T16:55:43;10.45;;;6.72;;
46334;SDS011;32051;48.882;9.210;2023-02-28T16:58:13;10.95;;;8.48;;
46334;SDS011;32051;48.882;9.210;2023-02-28T17:00:39;9.80;;;8.02;;
46334;SDS011;32051;48.882;9.210;2023-02-28T17:03:10;12.68;;;8.90;;
46334;SDS011;32051;48.882;9.210;2023-02-28T17:05:40;10.00;;;8.60;;
46334;SDS011;32051;48.882;9.210;2023-02-28T17:08:08;10.15;;;7.47;;
46334;SDS011;32051;48.882;9.210;2023-02-28T17:10:34;10.95;;;8.38;;
46334;SDS011;32051;48.882;9.210;2023-02-28T17:13:00;9.07;;;8.05;;
46334;SDS011;32051;48.882;9.210;2023-02-28T17:15:26;8.35;;;7.50;;
46334;SDS011;32051;48.882;9.210;2023-02-28T17:17:52;9.73;;;7.95;;
46334;SDS011;32051;48.882;9.210;2023-02-28T17:20:19;15.00;;;8.77;;
46334;SDS011;32051;48.882;9.210;2023-02-28T17:22:50;11.95;;;8.23;;
46334;SDS011;32051;48.882;9.210;2023-02-28T17:25:16;9.82;;;7.57;;